createdAt,value
2017-08-26T00:02:10.282Z,10.80
2017-08-26T00:04:38.501Z,11.37
2017-08-26T00:07:09.375Z,12.00
2017-08-26T00:09:38.554Z,10.50
2017-08-26T00:12:07.369Z,10.27
2017-08-26T00:14:34.913Z,9.83
2017-08-26T00:17:02.471Z,11.33
2017-08-26T00:19:30.029Z,11.43
2017-08-26T00:21:57.892Z,11.27
2017-08-26T00:24:28.314Z,12.33
2017-08-26T00:26:55.849Z,12.30
2017-08-26T00:29:23.429Z,12.40
2017-08-26T00:31:51.037Z,11.70
2017-08-26T00:34:18.636Z,10.40
2017-08-26T00:36:47.362Z,11.90
2017-08-26T00:39:17.449Z,10.30
2017-08-26T00:41:45.221Z,10.30
2017-08-26T00:44:12.837Z,10.10
2017-08-26T00:46:40.428Z,10.53
2017-08-26T00:49:07.962Z,10.30
2017-08-26T00:51:35.512Z,10.83
2017-08-26T00:54:03.047Z,9.50
2017-08-26T00:56:30.668Z,10.33
2017-08-26T00:58:58.222Z,9.43
2017-08-26T01:01:25.789Z,10.33
2017-08-26T01:03:53.349Z,9.07
2017-08-26T01:06:20.878Z,15.80
2017-08-26T01:08:48.426Z,10.87
2017-08-26T01:11:15.983Z,11.10
2017-08-26T01:13:43.783Z,9.30
2017-08-26T01:16:12.179Z,9.20
2017-08-26T01:18:39.725Z,10.70
2017-08-26T01:21:07.304Z,12.20
2017-08-26T01:23:34.861Z,12.10
2017-08-26T01:26:02.431Z,12.33
2017-08-26T01:28:30.015Z,10.87
2017-08-26T01:30:57.808Z,11.00
2017-08-26T01:33:25.354Z,10.50
2017-08-26T01:35:52.932Z,13.23
2017-08-26T01:38:28.938Z,14.00
2017-08-26T01:41:00.438Z,11.13
2017-08-26T01:43:28.005Z,11.00
2017-08-26T01:45:55.549Z,11.50
2017-08-26T01:48:23.107Z,9.10
2017-08-26T01:50:50.677Z,8.40
2017-08-26T01:53:20.096Z,8.90
2017-08-26T01:55:48.628Z,9.10
2017-08-26T01:58:16.168Z,8.20
2017-08-26T02:00:43.741Z,9.27
2017-08-26T02:03:11.325Z,11.47
2017-08-26T02:05:40.312Z,9.70
2017-08-26T02:08:07.934Z,10.97
2017-08-26T02:10:37.252Z,10.17
2017-08-26T02:13:05.586Z,9.33
2017-08-26T02:15:33.172Z,10.80
2017-08-26T02:18:00.716Z,10.07
2017-08-26T02:20:28.271Z,12.77
2017-08-26T02:22:55.809Z,12.63
2017-08-26T02:25:23.367Z,12.90
2017-08-26T02:27:50.911Z,11.63
2017-08-26T02:30:19.022Z,11.40
2017-08-26T02:32:46.634Z,11.20
2017-08-26T02:35:14.172Z,11.50
2017-08-26T02:37:41.769Z,11.00
2017-08-26T02:40:10.192Z,11.10
2017-08-26T02:42:37.739Z,10.90
2017-08-26T02:45:06.331Z,10.23
2017-08-26T02:47:35.046Z,11.17
2017-08-26T02:50:02.657Z,10.40
2017-08-26T02:52:30.214Z,9.20
2017-08-26T02:54:57.780Z,9.00
2017-08-26T02:57:25.337Z,8.67
2017-08-26T02:59:53.704Z,9.10
2017-08-26T03:02:23.971Z,9.93
2017-08-26T03:04:51.497Z,8.50
2017-08-26T03:07:19.083Z,9.37
2017-08-26T03:09:46.614Z,9.77
2017-08-26T03:12:14.155Z,9.87
2017-08-26T03:14:41.723Z,10.40
2017-08-26T03:17:09.257Z,10.03
2017-08-26T03:19:40.751Z,10.67
2017-08-26T03:22:10.219Z,13.70
2017-08-26T03:24:38.103Z,13.23
2017-08-26T03:27:05.640Z,13.10
2017-08-26T03:29:33.188Z,13.97
2017-08-26T03:32:00.809Z,14.13
2017-08-26T03:34:28.374Z,14.87
2017-08-26T03:36:55.906Z,15.33
2017-08-26T03:39:23.456Z,15.43
2017-08-26T03:41:56.857Z,15.80
2017-08-26T03:44:24.401Z,15.40
2017-08-26T03:46:51.934Z,17.70
2017-08-26T03:49:19.481Z,18.17
2017-08-26T03:51:47.009Z,16.47
2017-08-26T03:54:14.586Z,15.87
2017-08-26T03:56:43.833Z,15.40
2017-08-26T03:59:11.726Z,14.90
2017-08-26T04:01:39.242Z,13.50
2017-08-26T04:04:06.825Z,12.90
2017-08-26T04:06:35.013Z,12.10
2017-08-26T04:09:04.503Z,13.80
2017-08-26T04:11:32.121Z,14.70
2017-08-26T04:14:12.677Z,16.23
2017-08-26T04:16:40.895Z,19.00
2017-08-26T04:19:08.415Z,23.80
2017-08-26T04:21:43.346Z,25.40
2017-08-26T04:24:10.989Z,25.87
2017-08-26T04:26:56.169Z,29.37
2017-08-26T04:29:35.631Z,30.30
2017-08-26T04:32:03.166Z,30.07
2017-08-26T04:34:30.759Z,31.47
2017-08-26T04:37:01.330Z,32.70
2017-08-26T04:39:29.163Z,27.10
2017-08-26T04:41:56.728Z,32.17
2017-08-26T04:44:24.345Z,30.37
2017-08-26T04:46:51.941Z,35.20
2017-08-26T04:49:21.632Z,37.20
2017-08-26T04:51:49.209Z,35.47
2017-08-26T04:54:19.601Z,34.20
2017-08-26T04:56:47.229Z,32.03
2017-08-26T04:59:14.796Z,37.33
2017-08-26T05:01:42.357Z,35.50
2017-08-26T05:04:09.901Z,37.70
2017-08-26T05:06:37.762Z,28.47
2017-08-26T05:09:07.460Z,29.80
2017-08-26T05:11:35.050Z,36.33
2017-08-26T05:14:02.684Z,35.83
2017-08-26T05:16:30.242Z,35.30
2017-08-26T05:18:57.843Z,30.70
2017-08-26T05:21:25.427Z,25.00
2017-08-26T05:23:53.054Z,29.33
2017-08-26T05:26:20.628Z,25.80
2017-08-26T05:28:51.510Z,28.17
2017-08-26T05:31:19.083Z,28.80
2017-08-26T05:33:46.672Z,28.17
2017-08-26T05:36:14.227Z,26.80
2017-08-26T05:38:41.785Z,24.27
2017-08-26T05:41:10.544Z,25.67
2017-08-26T05:43:38.089Z,25.60
2017-08-26T05:46:05.838Z,24.27
2017-08-26T05:48:34.164Z,22.80
2017-08-26T05:51:01.801Z,22.43
2017-08-26T05:53:29.373Z,23.23
2017-08-26T05:55:56.929Z,23.57
2017-08-26T05:58:24.938Z,22.90
2017-08-26T06:00:52.485Z,19.63
2017-08-26T06:03:20.955Z,21.60
2017-08-26T06:05:50.506Z,23.07
2017-08-26T06:08:18.175Z,22.03
2017-08-26T06:10:45.719Z,23.00
2017-08-26T06:13:13.311Z,22.73
2017-08-26T06:15:41.202Z,21.00
2017-08-26T06:18:09.603Z,20.10
2017-08-26T06:20:37.264Z,19.77
2017-08-26T06:23:04.927Z,17.33
2017-08-26T06:25:32.520Z,15.37
2017-08-26T06:28:00.071Z,16.90
2017-08-26T06:30:27.624Z,15.53
2017-08-26T06:32:55.480Z,16.33
2017-08-26T06:35:23.811Z,14.30
2017-08-26T06:37:51.388Z,15.53
2017-08-26T06:40:19.380Z,14.00
2017-08-26T06:42:46.915Z,14.10
2017-08-26T06:45:14.798Z,14.50
2017-08-26T06:47:43.362Z,13.07
2017-08-26T06:50:12.248Z,15.70
2017-08-26T06:52:39.862Z,13.00
2017-08-26T06:55:07.415Z,12.80
2017-08-26T06:57:34.976Z,12.13
2017-08-26T07:00:02.539Z,13.00
2017-08-26T07:02:32.148Z,14.60
2017-08-26T07:04:59.738Z,14.53
2017-08-26T07:07:29.255Z,16.07
2017-08-26T07:09:56.869Z,15.47
2017-08-26T07:12:24.416Z,16.93
2017-08-26T07:14:51.993Z,16.97
2017-08-26T07:17:19.591Z,16.17
2017-08-26T07:19:48.966Z,17.30
2017-08-26T07:22:16.559Z,15.77
2017-08-26T07:24:44.113Z,19.00
2017-08-26T07:27:11.687Z,18.17
2017-08-26T07:29:39.250Z,19.30
2017-08-26T07:32:07.089Z,17.90
2017-08-26T07:34:34.646Z,20.83
2017-08-26T07:37:02.210Z,19.17
2017-08-26T07:39:29.953Z,19.80
2017-08-26T07:41:57.491Z,19.77
2017-08-26T07:44:25.099Z,19.43
2017-08-26T07:46:53.376Z,18.20
2017-08-26T07:49:22.938Z,20.30
2017-08-26T07:51:51.084Z,20.43
2017-08-26T07:54:18.628Z,19.23
2017-08-26T07:56:46.202Z,18.03
2017-08-26T07:59:14.194Z,18.87
2017-08-26T08:01:41.810Z,19.77
2017-08-26T08:04:09.412Z,17.67
2017-08-26T08:06:37.059Z,16.20
2017-08-26T08:09:05.240Z,18.50
2017-08-26T08:11:32.851Z,18.67
2017-08-26T08:14:00.751Z,18.57
2017-08-26T08:16:28.916Z,16.00
2017-08-26T08:18:56.464Z,20.07
2017-08-26T08:21:24.018Z,18.93
2017-08-26T08:23:51.731Z,19.77
2017-08-26T08:26:19.299Z,18.40
2017-08-26T08:28:47.125Z,20.40
2017-08-26T08:31:15.115Z,18.60
2017-08-26T08:33:42.676Z,20.37
2017-08-26T08:36:10.236Z,20.23
2017-08-26T08:38:38.578Z,17.70
2017-08-26T08:41:06.115Z,17.07
2017-08-26T08:43:33.686Z,17.30
2017-08-26T08:46:01.256Z,15.77
2017-08-26T08:48:29.187Z,15.10
2017-08-26T08:50:56.771Z,18.57
2017-08-26T08:53:24.325Z,14.93
2017-08-26T08:55:52.224Z,16.00
2017-08-26T08:58:20.307Z,16.97
2017-08-26T09:00:47.937Z,12.70
2017-08-26T09:03:15.655Z,13.27
2017-08-26T09:05:43.244Z,9.90
2017-08-26T09:08:10.852Z,10.90
2017-08-26T09:10:38.534Z,11.13
2017-08-26T09:13:06.227Z,11.67
2017-08-26T09:15:33.789Z,11.57
2017-08-26T09:18:01.351Z,11.00
2017-08-26T09:20:28.930Z,12.07
2017-08-26T09:22:56.890Z,10.20
2017-08-26T09:25:24.944Z,11.50
2017-08-26T09:27:53.582Z,11.93
2017-08-26T09:30:23.141Z,12.07
2017-08-26T09:32:50.695Z,11.80
2017-08-26T09:35:18.249Z,10.93
2017-08-26T09:37:52.318Z,11.33
2017-08-26T09:40:21.168Z,12.97
2017-08-26T09:42:48.720Z,12.87
2017-08-26T09:45:16.329Z,13.07
2017-08-26T09:47:43.891Z,12.90
2017-08-26T09:50:11.452Z,13.47
2017-08-26T09:52:39.026Z,14.53
2017-08-26T09:55:06.637Z,13.17
2017-08-26T09:57:34.188Z,13.83
2017-08-26T10:00:02.072Z,12.40
2017-08-26T10:02:29.639Z,14.13
2017-08-26T10:05:02.401Z,12.33
2017-08-26T10:07:30.312Z,13.80
2017-08-26T10:09:58.587Z,12.50
2017-08-26T10:12:26.230Z,12.33
2017-08-26T10:14:53.781Z,13.17
2017-08-26T10:17:21.360Z,13.80
2017-08-26T10:19:48.918Z,12.80
2017-08-26T10:22:16.546Z,11.97
2017-08-26T10:24:44.899Z,13.03
2017-08-26T10:27:17.897Z,12.67
2017-08-26T10:32:18.663Z,13.00
2017-08-26T10:34:47.030Z,11.87
2017-08-26T10:37:14.642Z,11.70
2017-08-26T10:39:42.694Z,15.33
2017-08-26T10:42:10.335Z,12.40
2017-08-26T10:44:37.902Z,11.50
2017-08-26T10:47:07.684Z,11.50
2017-08-26T10:49:35.302Z,10.00
2017-08-26T10:52:02.892Z,10.50
2017-08-26T10:54:30.471Z,9.30
2017-08-26T10:56:58.048Z,11.07
2017-08-26T10:59:25.609Z,10.03
2017-08-26T11:05:33.457Z,10.97
2017-08-26T11:08:01.718Z,12.47
2017-08-26T11:10:29.311Z,10.90
2017-08-26T11:12:56.893Z,10.10
2017-08-26T11:15:24.431Z,8.30
2017-08-26T11:17:54.059Z,7.80
2017-08-26T11:20:21.594Z,7.27
2017-08-26T11:22:49.172Z,8.13
2017-08-26T11:25:16.725Z,8.07
2017-08-26T11:27:44.296Z,9.17
2017-08-26T11:30:12.198Z,7.93
2017-08-26T11:32:40.303Z,8.13
2017-08-26T11:35:07.851Z,7.77
2017-08-26T11:37:35.417Z,7.10
2017-08-26T11:40:02.966Z,7.90
2017-08-26T11:42:30.522Z,8.13
2017-08-26T11:44:58.106Z,8.03
2017-08-26T11:47:28.837Z,7.70
2017-08-26T11:49:56.376Z,6.70
2017-08-26T11:52:23.920Z,7.90
2017-08-26T11:54:51.466Z,8.30
2017-08-26T11:57:21.226Z,7.83
2017-08-26T11:59:48.774Z,7.00
2017-08-26T12:02:16.322Z,6.80
2017-08-26T12:04:43.934Z,7.50
2017-08-26T12:07:12.832Z,7.60
2017-08-26T12:09:40.373Z,7.13
2017-08-26T12:12:07.937Z,7.70
2017-08-26T12:14:36.785Z,7.30
2017-08-26T12:17:04.373Z,7.20
2017-08-26T12:19:31.966Z,7.10
2017-08-26T12:21:59.531Z,7.90
2017-08-26T12:24:27.096Z,7.40
2017-08-26T12:26:59.131Z,7.57
2017-08-26T12:29:26.698Z,7.13
2017-08-26T12:31:54.991Z,7.40
2017-08-26T12:34:23.012Z,7.53
2017-08-26T12:36:50.573Z,8.10
2017-08-26T12:39:18.130Z,8.13
2017-08-26T12:41:53.285Z,7.83
2017-08-26T12:44:20.849Z,7.80
2017-08-26T12:46:48.409Z,8.50
2017-08-26T12:49:18.357Z,8.37
2017-08-26T12:51:46.263Z,7.63
2017-08-26T12:54:13.795Z,8.90
2017-08-26T12:56:41.355Z,9.30
2017-08-26T12:59:08.887Z,9.20
2017-08-26T13:04:13.407Z,8.83
2017-08-26T13:06:40.957Z,8.87
2017-08-26T13:09:08.780Z,8.90
2017-08-26T13:11:37.171Z,9.17
2017-08-26T13:14:04.753Z,8.83
2017-08-26T13:16:32.336Z,8.87
2017-08-26T13:18:59.887Z,8.83
2017-08-26T13:21:27.454Z,7.20
2017-08-26T13:23:55.006Z,9.60
2017-08-26T13:26:22.930Z,8.93
2017-08-26T13:28:50.464Z,9.30
2017-08-26T13:31:18.031Z,8.90
2017-08-26T13:33:50.787Z,9.30
2017-08-26T13:36:18.350Z,8.90
2017-08-26T13:38:50.093Z,8.37
2017-08-26T13:41:17.641Z,9.17
2017-08-26T13:43:45.476Z,8.67
2017-08-26T13:46:15.031Z,8.67
2017-08-26T13:48:42.591Z,8.30
2017-08-26T13:51:10.203Z,8.53
2017-08-26T13:53:37.779Z,8.90
2017-08-26T13:56:10.991Z,8.60
2017-08-26T13:58:38.536Z,8.37
2017-08-26T14:01:06.362Z,9.83
2017-08-26T14:03:34.819Z,9.87
2017-08-26T14:06:02.359Z,9.47
2017-08-26T14:08:36.314Z,10.00
2017-08-26T14:11:05.676Z,9.70
2017-08-26T14:13:33.290Z,9.20
2017-08-26T14:16:00.858Z,9.87
2017-08-26T14:18:28.825Z,9.20
2017-08-26T14:20:56.402Z,9.90
2017-08-26T14:23:26.254Z,10.70
2017-08-26T14:25:55.651Z,10.30
2017-08-26T14:28:23.224Z,10.40
2017-08-26T14:30:50.807Z,10.53
2017-08-26T14:33:18.419Z,10.17
2017-08-26T14:35:48.485Z,10.47
2017-08-26T14:38:16.040Z,11.20
2017-08-26T14:40:43.580Z,9.27
2017-08-26T14:43:11.151Z,9.63
2017-08-26T14:45:38.717Z,10.60
2017-08-26T14:48:06.287Z,10.27
2017-08-26T14:50:33.863Z,9.57
2017-08-26T14:53:01.434Z,10.77
2017-08-26T14:55:32.355Z,10.30
2017-08-26T14:58:00.753Z,10.47
2017-08-26T15:00:30.093Z,9.90
2017-08-26T15:03:03.990Z,10.20
2017-08-26T15:05:31.576Z,10.43
2017-08-26T15:07:59.140Z,9.10
2017-08-26T15:10:26.716Z,10.47
2017-08-26T15:12:54.258Z,10.20
2017-08-26T15:15:22.389Z,10.43
2017-08-26T15:17:49.955Z,10.40
2017-08-26T15:20:18.290Z,9.33
2017-08-26T15:22:45.860Z,9.20
2017-08-26T15:25:14.166Z,10.43
2017-08-26T15:27:42.853Z,10.07
2017-08-26T15:30:11.710Z,9.23
2017-08-26T15:32:39.294Z,9.33
2017-08-26T15:35:06.856Z,10.30
2017-08-26T15:37:34.391Z,10.47
2017-08-26T15:40:02.377Z,9.87
2017-08-26T15:42:29.928Z,9.83
2017-08-26T15:44:57.476Z,10.03
2017-08-26T15:47:25.034Z,9.63
2017-08-26T15:49:52.616Z,9.50
2017-08-26T15:52:20.203Z,10.30
2017-08-26T15:54:47.763Z,11.30
2017-08-26T15:57:16.504Z,10.30
2017-08-26T15:59:48.604Z,10.73
2017-08-26T16:02:16.899Z,10.83
2017-08-26T16:04:44.453Z,10.60
2017-08-26T16:07:12.036Z,10.87
2017-08-26T16:09:39.584Z,10.70
2017-08-26T16:12:08.370Z,10.43
2017-08-26T16:14:36.824Z,10.83
2017-08-26T16:17:04.375Z,10.20
2017-08-26T16:19:31.941Z,10.30
2017-08-26T16:21:59.467Z,10.70
2017-08-26T16:24:27.050Z,10.43
2017-08-26T16:26:56.037Z,10.50
2017-08-26T16:29:23.601Z,10.33
2017-08-26T16:31:51.178Z,10.60
2017-08-26T16:34:18.726Z,10.00
2017-08-26T16:36:46.279Z,11.10
2017-08-26T16:39:13.850Z,10.20
2017-08-26T16:41:41.700Z,9.90
2017-08-26T16:44:09.275Z,10.37
2017-08-26T16:46:36.841Z,11.00
2017-08-26T16:49:04.409Z,10.53
2017-08-26T16:51:32.030Z,11.70
2017-08-26T16:53:59.836Z,9.60
2017-08-26T16:56:33.586Z,9.63
2017-08-26T16:59:11.473Z,11.73
2017-08-26T17:01:39.059Z,10.00
2017-08-26T17:04:06.601Z,11.77
2017-08-26T17:06:34.245Z,10.70
2017-08-26T17:09:01.801Z,10.37
2017-08-26T17:11:29.634Z,10.40
2017-08-26T17:13:57.185Z,10.20
2017-08-26T17:16:24.787Z,11.10
2017-08-26T17:18:52.338Z,11.60
2017-08-26T17:21:19.876Z,11.83
2017-08-26T17:23:47.470Z,14.13
2017-08-26T17:26:15.055Z,12.80
2017-08-26T17:28:43.080Z,11.47
2017-08-26T17:31:10.672Z,10.87
2017-08-26T17:33:38.310Z,11.63
2017-08-26T17:36:05.905Z,11.20
2017-08-26T17:38:33.463Z,12.90
2017-08-26T17:41:01.036Z,10.90
2017-08-26T17:43:28.573Z,9.93
2017-08-26T17:45:56.147Z,11.03
2017-08-26T17:48:23.718Z,11.83
2017-08-26T17:50:51.255Z,10.80
2017-08-26T17:53:18.819Z,12.20
2017-08-26T17:55:46.425Z,12.00
2017-08-26T17:58:14.248Z,11.70
2017-08-26T18:00:41.808Z,11.03
2017-08-26T18:03:10.895Z,11.30
2017-08-26T18:05:38.446Z,11.87
2017-08-26T18:08:06.025Z,12.00
2017-08-26T18:10:34.681Z,12.37
2017-08-26T18:13:02.257Z,12.57
2017-08-26T18:15:30.131Z,12.70
2017-08-26T18:17:57.692Z,12.83
2017-08-26T18:20:26.289Z,13.53
2017-08-26T18:22:53.847Z,11.73
2017-08-26T18:25:22.517Z,13.20
2017-08-26T18:27:51.107Z,13.27
2017-08-26T18:30:20.756Z,12.77
2017-08-26T18:32:48.325Z,12.10
2017-08-26T18:35:16.423Z,12.60
2017-08-26T18:37:44.310Z,12.80
2017-08-26T18:40:12.479Z,14.27
2017-08-26T18:42:40.762Z,12.13
2017-08-26T18:45:08.691Z,12.00
2017-08-26T18:47:38.987Z,13.70
2017-08-26T18:50:07.318Z,13.20
2017-08-26T18:52:36.687Z,13.03
2017-08-26T18:55:07.875Z,13.53
2017-08-26T18:57:37.016Z,14.37
2017-08-26T19:00:04.595Z,15.10
2017-08-26T19:02:32.125Z,14.40
2017-08-26T19:04:59.713Z,15.23
2017-08-26T19:07:27.235Z,14.90
2017-08-26T19:09:54.792Z,14.93
2017-08-26T19:12:22.323Z,13.40
2017-08-26T19:14:49.894Z,14.77
2017-08-26T19:17:17.497Z,13.97
2017-08-26T19:19:45.057Z,13.83
2017-08-26T19:22:12.590Z,14.17
2017-08-26T19:24:40.158Z,14.13
2017-08-26T19:27:07.759Z,14.07
2017-08-26T19:29:35.434Z,15.33
2017-08-26T19:32:03.303Z,16.40
2017-08-26T19:34:37.008Z,17.10
2017-08-26T19:37:05.151Z,19.17
2017-08-26T19:39:34.383Z,17.47
2017-08-26T19:42:05.908Z,17.53
2017-08-26T19:44:33.529Z,20.63
2017-08-26T19:47:01.179Z,19.60
2017-08-26T19:49:28.875Z,19.60
2017-08-26T19:51:56.535Z,17.47
2017-08-26T19:54:24.433Z,18.00
2017-08-26T19:56:52.890Z,18.03
2017-08-26T19:59:20.637Z,18.23
2017-08-26T20:01:49.048Z,17.67
2017-08-26T20:04:16.731Z,19.27
2017-08-26T20:06:44.384Z,18.40
2017-08-26T20:09:12.047Z,19.83
2017-08-26T20:11:40.472Z,18.50
2017-08-26T20:14:08.112Z,20.00
2017-08-26T20:16:36.806Z,16.13
2017-08-26T20:19:04.494Z,16.33
2017-08-26T20:21:32.198Z,16.47
2017-08-26T20:24:00.297Z,16.10
2017-08-26T20:26:27.912Z,17.60
2017-08-26T20:28:55.510Z,16.77
2017-08-26T20:31:23.397Z,16.87
2017-08-26T20:33:50.926Z,18.10
2017-08-26T20:36:19.191Z,17.37
2017-08-26T20:38:47.702Z,18.60
2017-08-26T20:41:15.349Z,16.63
2017-08-26T20:43:43.197Z,19.33
2017-08-26T20:46:10.860Z,18.93
2017-08-26T20:48:38.731Z,18.23
2017-08-26T20:51:06.339Z,15.80
2017-08-26T20:53:33.970Z,15.90
2017-08-26T20:56:01.733Z,15.80
2017-08-26T20:58:29.412Z,15.50
2017-08-26T21:00:57.020Z,15.83
2017-08-26T21:03:24.655Z,15.33
2017-08-26T21:05:53.002Z,15.70
2017-08-26T21:08:21.459Z,15.97
2017-08-26T21:10:49.939Z,16.30
2017-08-26T21:13:18.231Z,17.53
2017-08-26T21:15:46.281Z,18.53
2017-08-26T21:18:15.605Z,17.27
2017-08-26T21:20:43.344Z,17.30
2017-08-26T21:23:11.027Z,17.00
2017-08-26T21:25:38.587Z,16.30
2017-08-26T21:28:06.442Z,15.70
2017-08-26T21:30:34.118Z,17.60
2017-08-26T21:33:01.768Z,16.40
2017-08-26T21:35:29.434Z,17.03
2017-08-26T21:37:57.023Z,18.90
2017-08-26T21:40:24.914Z,17.20
2017-08-26T21:42:53.277Z,16.00
2017-08-26T21:45:21.644Z,18.87
2017-08-26T21:47:49.210Z,16.40
2017-08-26T21:50:16.842Z,17.17
2017-08-26T21:52:44.697Z,18.00
2017-08-26T21:55:13.129Z,17.63
2017-08-26T21:57:40.708Z,18.80
2017-08-26T22:00:08.627Z,18.97
2017-08-26T22:02:36.168Z,18.33
2017-08-26T22:05:03.770Z,18.10
2017-08-26T22:07:31.356Z,18.60
2017-08-26T22:09:58.933Z,18.30
2017-08-26T22:12:26.548Z,18.53
2017-08-26T22:14:54.176Z,19.63
2017-08-26T22:17:21.739Z,19.30
2017-08-26T22:19:49.591Z,19.00
2017-08-26T22:22:17.165Z,20.03
2017-08-26T22:24:44.711Z,20.60
2017-08-26T22:27:12.311Z,19.90
2017-08-26T22:29:40.637Z,19.80
2017-08-26T22:32:08.248Z,20.63
2017-08-26T22:34:35.844Z,19.57
2017-08-26T22:37:03.420Z,22.20
2017-08-26T22:39:31.032Z,19.77
2017-08-26T22:41:58.567Z,21.50
2017-08-26T22:44:26.138Z,20.23
2017-08-26T22:46:53.707Z,19.77
2017-08-26T22:49:21.246Z,19.83
2017-08-26T22:51:48.822Z,22.00
2017-08-26T22:54:16.370Z,20.87
2017-08-26T22:56:43.956Z,22.37
2017-08-26T22:59:11.548Z,22.20
2017-08-26T23:01:39.093Z,22.30
2017-08-26T23:04:07.037Z,24.03
2017-08-26T23:06:34.566Z,22.57
2017-08-26T23:09:02.126Z,23.77
2017-08-26T23:11:29.691Z,20.40
2017-08-26T23:13:57.229Z,19.73
2017-08-26T23:16:24.783Z,19.07
2017-08-26T23:18:52.343Z,21.03
2017-08-26T23:21:19.900Z,21.50
2017-08-26T23:23:47.478Z,21.47
2017-08-26T23:26:15.044Z,20.53
2017-08-26T23:28:42.615Z,20.90
2017-08-26T23:31:10.241Z,18.13
2017-08-26T23:33:37.854Z,18.63
2017-08-26T23:36:05.410Z,21.57
2017-08-26T23:38:32.965Z,21.80
2017-08-26T23:41:00.907Z,22.47
2017-08-26T23:43:28.445Z,25.97
2017-08-26T23:45:56.018Z,26.63
2017-08-26T23:48:23.818Z,27.83
2017-08-26T23:50:51.354Z,24.30
2017-08-26T23:53:18.891Z,23.30
2017-08-26T23:55:46.449Z,25.47
2017-08-26T23:58:13.984Z,27.50
